sensor_id;sensor_type;location;lat;lon;timestamp;P1;durP1;ratioP1;P2;durP2;ratioP2
7493;SDS011;3788;49.902;8.590;2022-12-10T00:00:41;20.13;;;13.50;;
7493;SDS011;3788;49.902;8.590;2022-12-10T00:03:07;19.63;;;13.23;;
7493;SDS011;3788;49.902;8.590;2022-12-10T00:05:36;23.17;;;14.33;;
7493;SDS011;3788;49.902;8.590;2022-12-10T00:08:03;19.57;;;13.13;;
7493;SDS011;3788;49.902;8.590;2022-12-10T00:10:29;20.10;;;13.53;;
7493;SDS011;3788;49.902;8.590;2022-12-10T00:12:56;19.50;;;12.53;;
7493;SDS011;3788;49.902;8.590;2022-12-10T00:15:23;23.73;;;15.77;;
7493;SDS011;3788;49.902;8.590;2022-12-10T00:17:49;23.37;;;14.97;;
7493;SDS011;3788;49.902;8.590;2022-12-10T00:20:16;23.47;;;14.40;;
7493;SDS011;3788;49.902;8.590;2022-12-10T00:22:45;22.87;;;15.33;;
7493;SDS011;3788;49.902;8.590;2022-12-10T00:25:11;23.10;;;15.13;;
7493;SDS011;3788;49.902;8.590;2022-12-10T00:27:38;23.43;;;15.00;;
7493;SDS011;3788;49.902;8.590;2022-12-10T00:30:05;22.60;;;15.13;;
7493;SDS011;3788;49.902;8.590;2022-12-10T00:32:32;20.33;;;13.87;;
7493;SDS011;3788;49.902;8.590;2022-12-10T00:34:59;22.47;;;14.43;;
7493;SDS011;3788;49.902;8.590;2022-12-10T00:37:26;21.80;;;14.13;;
7493;SDS011;3788;49.902;8.590;2022-12-10T00:39:54;19.37;;;12.60;;
7493;SDS011;3788;49.902;8.590;2022-12-10T00:42:21;22.83;;;14.70;;
7493;SDS011;3788;49.902;8.590;2022-12-10T00:44:48;22.37;;;13.90;;
7493;SDS011;3788;49.902;8.590;2022-12-10T00:47:14;21.90;;;13.73;;
7493;SDS011;3788;49.902;8.590;2022-12-10T00:49:41;20.70;;;14.07;;
7493;SDS011;3788;49.902;8.590;2022-12-10T00:52:08;20.30;;;13.63;;
7493;SDS011;3788;49.902;8.590;2022-12-10T00:54:35;20.43;;;13.03;;
7493;SDS011;3788;49.902;8.590;2022-12-10T00:57:03;19.97;;;13.57;;
7493;SDS011;3788;49.902;8.590;2022-12-10T00:59:30;23.67;;;13.57;;
7493;SDS011;3788;49.902;8.590;2022-12-10T01:01:57;20.17;;;13.03;;
7493;SDS011;3788;49.902;8.590;2022-12-10T01:04:24;21.93;;;12.73;;
7493;SDS011;3788;49.902;8.590;2022-12-10T01:06:51;22.33;;;14.10;;
7493;SDS011;3788;49.902;8.590;2022-12-10T01:09:21;21.20;;;13.93;;
7493;SDS011;3788;49.902;8.590;2022-12-10T01:11:49;18.60;;;12.37;;
7493;SDS011;3788;49.902;8.590;2022-12-10T01:14:19;19.80;;;12.87;;
7493;SDS011;3788;49.902;8.590;2022-12-10T01:16:48;17.97;;;12.47;;
7493;SDS011;3788;49.902;8.590;2022-12-10T01:19:15;17.37;;;12.30;;
7493;SDS011;3788;49.902;8.590;2022-12-10T01:21:42;17.23;;;12.90;;
7493;SDS011;3788;49.902;8.590;2022-12-10T01:24:09;18.83;;;11.83;;
7493;SDS011;3788;49.902;8.590;2022-12-10T01:26:36;20.07;;;13.17;;
7493;SDS011;3788;49.902;8.590;2022-12-10T01:29:03;19.23;;;12.10;;
7493;SDS011;3788;49.902;8.590;2022-12-10T01:31:32;19.63;;;12.73;;
7493;SDS011;3788;49.902;8.590;2022-12-10T01:34:01;20.70;;;13.27;;
7493;SDS011;3788;49.902;8.590;2022-12-10T01:36:29;19.13;;;12.90;;
7493;SDS011;3788;49.902;8.590;2022-12-10T01:38:57;18.50;;;12.60;;
7493;SDS011;3788;49.902;8.590;2022-12-10T01:41:25;19.97;;;12.53;;
7493;SDS011;3788;49.902;8.590;2022-12-10T01:43:55;20.80;;;12.47;;
7493;SDS011;3788;49.902;8.590;2022-12-10T01:46:24;18.97;;;12.30;;
7493;SDS011;3788;49.902;8.590;2022-12-10T01:48:54;19.00;;;13.33;;
7493;SDS011;3788;49.902;8.590;2022-12-10T01:51:21;18.03;;;12.03;;
7493;SDS011;3788;49.902;8.590;2022-12-10T01:53:50;17.47;;;12.07;;
7493;SDS011;3788;49.902;8.590;2022-12-10T01:56:17;17.47;;;12.00;;
7493;SDS011;3788;49.902;8.590;2022-12-10T01:58:45;17.40;;;11.67;;
7493;SDS011;3788;49.902;8.590;2022-12-10T02:01:14;14.67;;;11.13;;
7493;SDS011;3788;49.902;8.590;2022-12-10T02:03:51;16.03;;;10.77;;
7493;SDS011;3788;49.902;8.590;2022-12-10T02:06:29;17.43;;;11.30;;
7493;SDS011;3788;49.902;8.590;2022-12-10T02:09:08;16.30;;;10.77;;
7493;SDS011;3788;49.902;8.590;2022-12-10T02:11:41;15.93;;;10.70;;
7493;SDS011;3788;49.902;8.590;2022-12-10T02:14:14;15.00;;;10.87;;
7493;SDS011;3788;49.902;8.590;2022-12-10T02:16:44;16.40;;;11.50;;
7493;SDS011;3788;49.902;8.590;2022-12-10T02:19:19;15.80;;;11.30;;
7493;SDS011;3788;49.902;8.590;2022-12-10T02:21:53;16.93;;;11.60;;
7493;SDS011;3788;49.902;8.590;2022-12-10T02:24:23;18.13;;;11.93;;
7493;SDS011;3788;49.902;8.590;2022-12-10T02:26:56;15.60;;;11.10;;
7493;SDS011;3788;49.902;8.590;2022-12-10T02:29:27;17.63;;;11.13;;
7493;SDS011;3788;49.902;8.590;2022-12-10T02:31:56;17.37;;;10.50;;
7493;SDS011;3788;49.902;8.590;2022-12-10T02:34:28;14.93;;;10.93;;
7493;SDS011;3788;49.902;8.590;2022-12-10T02:37:00;15.43;;;11.07;;
7493;SDS011;3788;49.902;8.590;2022-12-10T02:39:31;17.07;;;12.10;;
7493;SDS011;3788;49.902;8.590;2022-12-10T02:42:04;16.23;;;10.93;;
7493;SDS011;3788;49.902;8.590;2022-12-10T02:44:35;13.83;;;9.40;;
7493;SDS011;3788;49.902;8.590;2022-12-10T02:47:04;14.90;;;9.90;;
7493;SDS011;3788;49.902;8.590;2022-12-10T02:49:32;13.10;;;9.67;;
7493;SDS011;3788;49.902;8.590;2022-12-10T02:52:05;14.70;;;9.57;;
7493;SDS011;3788;49.902;8.590;2022-12-10T02:54:38;12.97;;;9.80;;
7493;SDS011;3788;49.902;8.590;2022-12-10T02:59:59;11.93;;;9.13;;
7493;SDS011;3788;49.902;8.590;2022-12-10T03:02:31;13.27;;;9.13;;
7493;SDS011;3788;49.902;8.590;2022-12-10T03:05:03;13.93;;;9.27;;
7493;SDS011;3788;49.902;8.590;2022-12-10T03:07:38;16.00;;;9.80;;
7493;SDS011;3788;49.902;8.590;2022-12-10T03:10:10;13.47;;;8.83;;
7493;SDS011;3788;49.902;8.590;2022-12-10T03:12:45;13.77;;;9.57;;
7493;SDS011;3788;49.902;8.590;2022-12-10T03:15:16;14.67;;;9.70;;
7493;SDS011;3788;49.902;8.590;2022-12-10T03:17:45;12.20;;;9.40;;
7493;SDS011;3788;49.902;8.590;2022-12-10T03:20:14;13.07;;;8.77;;
7493;SDS011;3788;49.902;8.590;2022-12-10T03:22:43;10.10;;;8.03;;
7493;SDS011;3788;49.902;8.590;2022-12-10T03:25:12;13.00;;;8.83;;
7493;SDS011;3788;49.902;8.590;2022-12-10T03:27:42;12.77;;;9.07;;
7493;SDS011;3788;49.902;8.590;2022-12-10T03:30:11;11.43;;;8.43;;
7493;SDS011;3788;49.902;8.590;2022-12-10T03:32:39;12.27;;;8.63;;
7493;SDS011;3788;49.902;8.590;2022-12-10T03:35:06;11.83;;;8.17;;
7493;SDS011;3788;49.902;8.590;2022-12-10T03:37:34;10.03;;;7.90;;
7493;SDS011;3788;49.902;8.590;2022-12-10T03:40:00;12.30;;;8.17;;
7493;SDS011;3788;49.902;8.590;2022-12-10T03:42:29;11.30;;;8.47;;
7493;SDS011;3788;49.902;8.590;2022-12-10T03:44:56;12.37;;;8.50;;
7493;SDS011;3788;49.902;8.590;2022-12-10T03:47:22;11.10;;;7.80;;
7493;SDS011;3788;49.902;8.590;2022-12-10T03:49:51;12.50;;;8.53;;
7493;SDS011;3788;49.902;8.590;2022-12-10T03:52:17;10.43;;;7.90;;
7493;SDS011;3788;49.902;8.590;2022-12-10T03:54:44;11.67;;;7.87;;
7493;SDS011;3788;49.902;8.590;2022-12-10T03:57:11;11.17;;;8.30;;
7493;SDS011;3788;49.902;8.590;2022-12-10T03:59:38;12.60;;;8.80;;
7493;SDS011;3788;49.902;8.590;2022-12-10T04:02:04;12.93;;;8.23;;
7493;SDS011;3788;49.902;8.590;2022-12-10T04:04:32;11.03;;;8.20;;
7493;SDS011;3788;49.902;8.590;2022-12-10T04:07:00;10.93;;;7.50;;
7493;SDS011;3788;49.902;8.590;2022-12-10T04:09:26;11.90;;;8.17;;
7493;SDS011;3788;49.902;8.590;2022-12-10T04:11:54;10.80;;;8.40;;
7493;SDS011;3788;49.902;8.590;2022-12-10T04:14:22;11.30;;;8.60;;
7493;SDS011;3788;49.902;8.590;2022-12-10T04:17:06;12.87;;;8.47;;
7493;SDS011;3788;49.902;8.590;2022-12-10T04:19:33;11.13;;;8.27;;
7493;SDS011;3788;49.902;8.590;2022-12-10T04:22:01;11.27;;;8.03;;
7493;SDS011;3788;49.902;8.590;2022-12-10T04:24:45;12.53;;;7.63;;
7493;SDS011;3788;49.902;8.590;2022-12-10T04:27:30;10.20;;;7.40;;
7493;SDS011;3788;49.902;8.590;2022-12-10T04:29:59;11.80;;;8.60;;
7493;SDS011;3788;49.902;8.590;2022-12-10T04:32:26;10.77;;;8.23;;
7493;SDS011;3788;49.902;8.590;2022-12-10T04:34:55;10.47;;;7.60;;
7493;SDS011;3788;49.902;8.590;2022-12-10T04:37:23;10.73;;;8.30;;
7493;SDS011;3788;49.902;8.590;2022-12-10T04:39:50;10.27;;;7.80;;
7493;SDS011;3788;49.902;8.590;2022-12-10T04:42:19;9.17;;;7.43;;
7493;SDS011;3788;49.902;8.590;2022-12-10T04:44:47;10.27;;;7.73;;
7493;SDS011;3788;49.902;8.590;2022-12-10T04:47:13;10.47;;;8.03;;
7493;SDS011;3788;49.902;8.590;2022-12-10T04:49:41;11.23;;;7.90;;
7493;SDS011;3788;49.902;8.590;2022-12-10T04:52:09;11.20;;;8.10;;
7493;SDS011;3788;49.902;8.590;2022-12-10T04:54:38;11.23;;;7.97;;
7493;SDS011;3788;49.902;8.590;2022-12-10T04:57:06;10.97;;;7.43;;
7493;SDS011;3788;49.902;8.590;2022-12-10T04:59:33;10.63;;;7.67;;
7493;SDS011;3788;49.902;8.590;2022-12-10T05:02:00;10.70;;;8.27;;
7493;SDS011;3788;49.902;8.590;2022-12-10T05:04:27;11.07;;;7.90;;
7493;SDS011;3788;49.902;8.590;2022-12-10T05:06:54;10.57;;;7.53;;
7493;SDS011;3788;49.902;8.590;2022-12-10T05:09:21;10.70;;;8.10;;
7493;SDS011;3788;49.902;8.590;2022-12-10T05:11:49;11.77;;;8.40;;
7493;SDS011;3788;49.902;8.590;2022-12-10T05:14:16;10.63;;;7.40;;
7493;SDS011;3788;49.902;8.590;2022-12-10T05:16:43;10.07;;;7.53;;
7493;SDS011;3788;49.902;8.590;2022-12-10T05:19:10;10.43;;;7.70;;
7493;SDS011;3788;49.902;8.590;2022-12-10T05:21:37;10.40;;;7.30;;
7493;SDS011;3788;49.902;8.590;2022-12-10T05:24:21;9.47;;;6.90;;
7493;SDS011;3788;49.902;8.590;2022-12-10T05:26:50;9.53;;;6.80;;
7493;SDS011;3788;49.902;8.590;2022-12-10T05:29:17;8.90;;;6.57;;
7493;SDS011;3788;49.902;8.590;2022-12-10T05:31:44;11.97;;;7.43;;
7493;SDS011;3788;49.902;8.590;2022-12-10T05:34:11;8.47;;;7.03;;
7493;SDS011;3788;49.902;8.590;2022-12-10T05:36:38;10.27;;;7.60;;
7493;SDS011;3788;49.902;8.590;2022-12-10T05:39:04;9.73;;;7.07;;
7493;SDS011;3788;49.902;8.590;2022-12-10T05:41:34;8.13;;;6.00;;
7493;SDS011;3788;49.902;8.590;2022-12-10T05:44:02;9.43;;;6.47;;
7493;SDS011;3788;49.902;8.590;2022-12-10T05:46:31;9.80;;;6.87;;
7493;SDS011;3788;49.902;8.590;2022-12-10T05:48:59;9.10;;;6.60;;
7493;SDS011;3788;49.902;8.590;2022-12-10T05:51:27;9.10;;;6.47;;
7493;SDS011;3788;49.902;8.590;2022-12-10T05:53:56;8.53;;;6.23;;
7493;SDS011;3788;49.902;8.590;2022-12-10T05:56:24;8.17;;;6.10;;
7493;SDS011;3788;49.902;8.590;2022-12-10T05:58:52;8.43;;;6.50;;
7493;SDS011;3788;49.902;8.590;2022-12-10T06:01:22;7.30;;;6.03;;
7493;SDS011;3788;49.902;8.590;2022-12-10T06:03:50;8.47;;;6.53;;
7493;SDS011;3788;49.902;8.590;2022-12-10T06:06:19;6.83;;;6.07;;
7493;SDS011;3788;49.902;8.590;2022-12-10T06:08:47;9.37;;;7.20;;
7493;SDS011;3788;49.902;8.590;2022-12-10T06:11:13;10.47;;;7.60;;
7493;SDS011;3788;49.902;8.590;2022-12-10T06:13:40;8.83;;;6.47;;
7493;SDS011;3788;49.902;8.590;2022-12-10T06:16:08;9.23;;;6.97;;
7493;SDS011;3788;49.902;8.590;2022-12-10T06:18:37;8.77;;;6.93;;
7493;SDS011;3788;49.902;8.590;2022-12-10T06:21:05;10.23;;;7.47;;
7493;SDS011;3788;49.902;8.590;2022-12-10T06:23:33;8.67;;;6.20;;
7493;SDS011;3788;49.902;8.590;2022-12-10T06:26:02;8.70;;;6.80;;
7493;SDS011;3788;49.902;8.590;2022-12-10T06:28:30;8.30;;;6.47;;
7493;SDS011;3788;49.902;8.590;2022-12-10T06:30:57;7.90;;;6.10;;
7493;SDS011;3788;49.902;8.590;2022-12-10T06:33:24;8.80;;;6.70;;
7493;SDS011;3788;49.902;8.590;2022-12-10T06:35:52;8.90;;;6.60;;
7493;SDS011;3788;49.902;8.590;2022-12-10T06:38:19;9.67;;;6.57;;
7493;SDS011;3788;49.902;8.590;2022-12-10T06:40:45;9.30;;;6.77;;
7493;SDS011;3788;49.902;8.590;2022-12-10T06:43:12;10.93;;;7.57;;
7493;SDS011;3788;49.902;8.590;2022-12-10T06:45:39;10.50;;;7.33;;
7493;SDS011;3788;49.902;8.590;2022-12-10T06:48:06;12.47;;;8.13;;
7493;SDS011;3788;49.902;8.590;2022-12-10T06:50:33;9.63;;;7.47;;
7493;SDS011;3788;49.902;8.590;2022-12-10T06:53:02;12.47;;;8.40;;
7493;SDS011;3788;49.902;8.590;2022-12-10T06:55:29;10.47;;;8.03;;
7493;SDS011;3788;49.902;8.590;2022-12-10T06:57:55;11.63;;;8.30;;
7493;SDS011;3788;49.902;8.590;2022-12-10T07:00:22;11.57;;;8.03;;
7493;SDS011;3788;49.902;8.590;2022-12-10T07:02:49;9.77;;;7.40;;
7493;SDS011;3788;49.902;8.590;2022-12-10T07:05:16;9.60;;;7.57;;
7493;SDS011;3788;49.902;8.590;2022-12-10T07:07:43;10.67;;;7.63;;
7493;SDS011;3788;49.902;8.590;2022-12-10T07:10:11;9.87;;;7.37;;
7493;SDS011;3788;49.902;8.590;2022-12-10T07:12:38;10.10;;;7.63;;
7493;SDS011;3788;49.902;8.590;2022-12-10T07:15:05;8.40;;;6.53;;
7493;SDS011;3788;49.902;8.590;2022-12-10T07:17:33;9.33;;;7.43;;
7493;SDS011;3788;49.902;8.590;2022-12-10T07:20:00;9.67;;;6.53;;
7493;SDS011;3788;49.902;8.590;2022-12-10T07:22:27;10.47;;;7.40;;
7493;SDS011;3788;49.902;8.590;2022-12-10T07:24:54;8.53;;;6.43;;
7493;SDS011;3788;49.902;8.590;2022-12-10T07:27:22;9.17;;;6.60;;
7493;SDS011;3788;49.902;8.590;2022-12-10T07:29:49;8.70;;;6.90;;
7493;SDS011;3788;49.902;8.590;2022-12-10T07:32:15;10.77;;;7.00;;
7493;SDS011;3788;49.902;8.590;2022-12-10T07:34:42;11.27;;;7.93;;
7493;SDS011;3788;49.902;8.590;2022-12-10T07:37:09;10.87;;;8.10;;
7493;SDS011;3788;49.902;8.590;2022-12-10T07:39:36;11.77;;;8.33;;
7493;SDS011;3788;49.902;8.590;2022-12-10T07:42:03;11.50;;;8.20;;
7493;SDS011;3788;49.902;8.590;2022-12-10T07:44:31;10.70;;;8.30;;
7493;SDS011;3788;49.902;8.590;2022-12-10T07:46:58;10.53;;;8.07;;
7493;SDS011;3788;49.902;8.590;2022-12-10T07:49:25;12.70;;;8.27;;
7493;SDS011;3788;49.902;8.590;2022-12-10T07:51:52;11.50;;;8.30;;
7493;SDS011;3788;49.902;8.590;2022-12-10T07:54:18;13.17;;;8.13;;
7493;SDS011;3788;49.902;8.590;2022-12-10T07:56:45;12.27;;;9.07;;
7493;SDS011;3788;49.902;8.590;2022-12-10T07:59:12;11.43;;;8.07;;
7493;SDS011;3788;49.902;8.590;2022-12-10T08:01:40;12.70;;;8.53;;
7493;SDS011;3788;49.902;8.590;2022-12-10T08:04:07;11.50;;;8.37;;
7493;SDS011;3788;49.902;8.590;2022-12-10T08:06:33;10.90;;;8.10;;
7493;SDS011;3788;49.902;8.590;2022-12-10T08:09:01;10.33;;;7.73;;
7493;SDS011;3788;49.902;8.590;2022-12-10T08:11:28;11.63;;;7.70;;
7493;SDS011;3788;49.902;8.590;2022-12-10T08:13:54;10.40;;;7.73;;
7493;SDS011;3788;49.902;8.590;2022-12-10T08:16:22;10.87;;;7.90;;
7493;SDS011;3788;49.902;8.590;2022-12-10T08:18:52;10.23;;;7.90;;
7493;SDS011;3788;49.902;8.590;2022-12-10T08:21:21;12.33;;;8.77;;
7493;SDS011;3788;49.902;8.590;2022-12-10T08:23:50;9.67;;;7.33;;
7493;SDS011;3788;49.902;8.590;2022-12-10T08:26:18;12.90;;;8.37;;
7493;SDS011;3788;49.902;8.590;2022-12-10T08:28:46;11.13;;;8.33;;
7493;SDS011;3788;49.902;8.590;2022-12-10T08:31:16;12.83;;;8.03;;
7493;SDS011;3788;49.902;8.590;2022-12-10T08:33:44;10.87;;;8.63;;
7493;SDS011;3788;49.902;8.590;2022-12-10T08:36:13;11.27;;;8.80;;
7493;SDS011;3788;49.902;8.590;2022-12-10T08:38:41;11.83;;;8.60;;
7493;SDS011;3788;49.902;8.590;2022-12-10T08:41:09;11.30;;;8.53;;
7493;SDS011;3788;49.902;8.590;2022-12-10T08:43:38;10.53;;;8.00;;
7493;SDS011;3788;49.902;8.590;2022-12-10T08:46:05;12.13;;;8.70;;
7493;SDS011;3788;49.902;8.590;2022-12-10T08:48:33;11.27;;;8.10;;
7493;SDS011;3788;49.902;8.590;2022-12-10T08:51:00;12.03;;;8.57;;
7493;SDS011;3788;49.902;8.590;2022-12-10T08:53:29;10.83;;;8.47;;
7493;SDS011;3788;49.902;8.590;2022-12-10T08:55:55;10.07;;;8.50;;
7493;SDS011;3788;49.902;8.590;2022-12-10T08:58:23;11.43;;;8.33;;
7493;SDS011;3788;49.902;8.590;2022-12-10T09:00:50;12.00;;;8.70;;
7493;SDS011;3788;49.902;8.590;2022-12-10T09:03:17;11.87;;;8.03;;
7493;SDS011;3788;49.902;8.590;2022-12-10T09:05:44;12.70;;;9.30;;
7493;SDS011;3788;49.902;8.590;2022-12-10T09:08:11;11.70;;;8.73;;
7493;SDS011;3788;49.902;8.590;2022-12-10T09:10:40;13.20;;;9.57;;
7493;SDS011;3788;49.902;8.590;2022-12-10T09:13:07;11.63;;;8.47;;
7493;SDS011;3788;49.902;8.590;2022-12-10T09:15:34;9.47;;;7.73;;
7493;SDS011;3788;49.902;8.590;2022-12-10T09:18:02;11.07;;;7.63;;
7493;SDS011;3788;49.902;8.590;2022-12-10T09:20:29;11.17;;;8.43;;
7493;SDS011;3788;49.902;8.590;2022-12-10T09:22:56;11.27;;;8.37;;
7493;SDS011;3788;49.902;8.590;2022-12-10T09:25:22;10.60;;;8.57;;
7493;SDS011;3788;49.902;8.590;2022-12-10T09:27:51;10.83;;;8.80;;
7493;SDS011;3788;49.902;8.590;2022-12-10T09:30:18;13.23;;;9.27;;
7493;SDS011;3788;49.902;8.590;2022-12-10T09:32:45;13.67;;;9.57;;
7493;SDS011;3788;49.902;8.590;2022-12-10T09:35:12;11.40;;;8.60;;
7493;SDS011;3788;49.902;8.590;2022-12-10T09:37:39;13.00;;;8.80;;
7493;SDS011;3788;49.902;8.590;2022-12-10T09:40:06;11.47;;;8.97;;
7493;SDS011;3788;49.902;8.590;2022-12-10T09:42:38;12.23;;;8.43;;
7493;SDS011;3788;49.902;8.590;2022-12-10T09:45:15;11.60;;;8.20;;
7493;SDS011;3788;49.902;8.590;2022-12-10T09:47:49;11.23;;;8.73;;
7493;SDS011;3788;49.902;8.590;2022-12-10T09:50:23;9.83;;;8.60;;
7493;SDS011;3788;49.902;8.590;2022-12-10T09:52:55;11.33;;;8.27;;
7493;SDS011;3788;49.902;8.590;2022-12-10T09:55:26;12.33;;;8.93;;
7493;SDS011;3788;49.902;8.590;2022-12-10T09:57:57;13.30;;;9.10;;
7493;SDS011;3788;49.902;8.590;2022-12-10T10:00:29;9.80;;;8.03;;
7493;SDS011;3788;49.902;8.590;2022-12-10T10:02:59;10.30;;;8.17;;
7493;SDS011;3788;49.902;8.590;2022-12-10T10:05:27;10.53;;;8.87;;
7493;SDS011;3788;49.902;8.590;2022-12-10T10:07:56;12.53;;;8.70;;
7493;SDS011;3788;49.902;8.590;2022-12-10T10:10:27;14.07;;;9.93;;
7493;SDS011;3788;49.902;8.590;2022-12-10T10:12:55;12.00;;;8.70;;
7493;SDS011;3788;49.902;8.590;2022-12-10T10:15:30;12.43;;;9.30;;
7493;SDS011;3788;49.902;8.590;2022-12-10T10:17:59;11.20;;;8.50;;
7493;SDS011;3788;49.902;8.590;2022-12-10T10:20:31;12.13;;;8.93;;
7493;SDS011;3788;49.902;8.590;2022-12-10T10:22:58;13.23;;;9.40;;
7493;SDS011;3788;49.902;8.590;2022-12-10T10:25:26;13.13;;;8.97;;
7493;SDS011;3788;49.902;8.590;2022-12-10T10:27:53;11.80;;;8.67;;
7493;SDS011;3788;49.902;8.590;2022-12-10T10:30:21;11.50;;;8.87;;
7493;SDS011;3788;49.902;8.590;2022-12-10T10:32:50;10.67;;;8.67;;
7493;SDS011;3788;49.902;8.590;2022-12-10T10:35:22;10.20;;;7.73;;
7493;SDS011;3788;49.902;8.590;2022-12-10T10:37:51;9.57;;;8.07;;
7493;SDS011;3788;49.902;8.590;2022-12-10T10:40:25;9.77;;;7.70;;
7493;SDS011;3788;49.902;8.590;2022-12-10T10:42:54;9.63;;;7.70;;
7493;SDS011;3788;49.902;8.590;2022-12-10T10:45:30;12.20;;;8.90;;
7493;SDS011;3788;49.902;8.590;2022-12-10T10:48:06;12.50;;;9.20;;
7493;SDS011;3788;49.902;8.590;2022-12-10T10:50:37;11.37;;;8.53;;
7493;SDS011;3788;49.902;8.590;2022-12-10T10:53:21;10.97;;;8.80;;
7493;SDS011;3788;49.902;8.590;2022-12-10T10:55:54;11.60;;;9.00;;
7493;SDS011;3788;49.902;8.590;2022-12-10T10:58:22;10.53;;;8.50;;
7493;SDS011;3788;49.902;8.590;2022-12-10T11:00:57;10.40;;;8.63;;
7493;SDS011;3788;49.902;8.590;2022-12-10T11:03:28;10.07;;;8.07;;
7493;SDS011;3788;49.902;8.590;2022-12-10T11:05:56;10.53;;;8.43;;
7493;SDS011;3788;49.902;8.590;2022-12-10T11:08:25;12.03;;;8.43;;
7493;SDS011;3788;49.902;8.590;2022-12-10T11:10:56;15.30;;;9.17;;
7493;SDS011;3788;49.902;8.590;2022-12-10T11:13:28;12.23;;;8.73;;
7493;SDS011;3788;49.902;8.590;2022-12-10T11:15:58;12.10;;;9.00;;
7493;SDS011;3788;49.902;8.590;2022-12-10T11:18:31;9.47;;;8.00;;
7493;SDS011;3788;49.902;8.590;2022-12-10T11:21:00;12.93;;;9.10;;
7493;SDS011;3788;49.902;8.590;2022-12-10T11:23:31;11.63;;;9.10;;
7493;SDS011;3788;49.902;8.590;2022-12-10T11:26:11;13.37;;;9.60;;
7493;SDS011;3788;49.902;8.590;2022-12-10T11:29:02;12.00;;;8.43;;
7493;SDS011;3788;49.902;8.590;2022-12-10T11:31:40;13.83;;;8.93;;
7493;SDS011;3788;49.902;8.590;2022-12-10T11:34:17;10.53;;;8.43;;
7493;SDS011;3788;49.902;8.590;2022-12-10T11:36:49;10.13;;;7.87;;
7493;SDS011;3788;49.902;8.590;2022-12-10T11:39:30;11.60;;;8.90;;
7493;SDS011;3788;49.902;8.590;2022-12-10T11:42:13;11.43;;;8.47;;
7493;SDS011;3788;49.902;8.590;2022-12-10T11:44:47;12.87;;;8.50;;
7493;SDS011;3788;49.902;8.590;2022-12-10T11:47:25;10.40;;;8.47;;
7493;SDS011;3788;49.902;8.590;2022-12-10T11:50:13;9.90;;;8.73;;
7493;SDS011;3788;49.902;8.590;2022-12-10T11:52:50;13.03;;;8.83;;
7493;SDS011;3788;49.902;8.590;2022-12-10T11:55:29;11.70;;;8.77;;
7493;SDS011;3788;49.902;8.590;2022-12-10T11:58:09;10.20;;;8.00;;
7493;SDS011;3788;49.902;8.590;2022-12-10T12:00:56;13.57;;;8.93;;
7493;SDS011;3788;49.902;8.590;2022-12-10T12:03:37;12.07;;;8.43;;
7493;SDS011;3788;49.902;8.590;2022-12-10T12:06:23;10.67;;;8.67;;
7493;SDS011;3788;49.902;8.590;2022-12-10T12:09:10;12.40;;;8.80;;
7493;SDS011;3788;49.902;8.590;2022-12-10T12:11:47;10.60;;;7.53;;
7493;SDS011;3788;49.902;8.590;2022-12-10T12:14:24;12.00;;;8.33;;
7493;SDS011;3788;49.902;8.590;2022-12-10T12:16:56;9.27;;;8.03;;
7493;SDS011;3788;49.902;8.590;2022-12-10T12:19:28;10.33;;;7.90;;
7493;SDS011;3788;49.902;8.590;2022-12-10T12:22:06;9.97;;;7.23;;
7493;SDS011;3788;49.902;8.590;2022-12-10T12:24:40;9.00;;;7.80;;
7493;SDS011;3788;49.902;8.590;2022-12-10T12:27:12;9.70;;;7.53;;
7493;SDS011;3788;49.902;8.590;2022-12-10T12:29:46;9.87;;;7.47;;
7493;SDS011;3788;49.902;8.590;2022-12-10T12:32:25;9.13;;;7.27;;
7493;SDS011;3788;49.902;8.590;2022-12-10T12:34:58;9.30;;;7.00;;
7493;SDS011;3788;49.902;8.590;2022-12-10T12:37:32;10.70;;;7.43;;
7493;SDS011;3788;49.902;8.590;2022-12-10T12:40:09;10.90;;;7.75;;
7493;SDS011;3788;49.902;8.590;2022-12-10T12:42:55;9.48;;;7.70;;
7493;SDS011;3788;49.902;8.590;2022-12-10T12:45:31;9.60;;;7.60;;
7493;SDS011;3788;49.902;8.590;2022-12-10T12:48:04;10.33;;;8.33;;
7493;SDS011;3788;49.902;8.590;2022-12-10T12:50:42;11.60;;;7.90;;
7493;SDS011;3788;49.902;8.590;2022-12-10T12:53:13;12.30;;;7.57;;
7493;SDS011;3788;49.902;8.590;2022-12-10T12:55:46;9.67;;;7.53;;
7493;SDS011;3788;49.902;8.590;2022-12-10T12:58:22;10.97;;;8.20;;
7493;SDS011;3788;49.902;8.590;2022-12-10T13:00:56;10.17;;;7.63;;
7493;SDS011;3788;49.902;8.590;2022-12-10T13:03:29;12.38;;;9.55;;
7493;SDS011;3788;49.902;8.590;2022-12-10T13:06:17;11.65;;;8.82;;
7493;SDS011;3788;49.902;8.590;2022-12-10T13:08:49;10.73;;;7.93;;
7493;SDS011;3788;49.902;8.590;2022-12-10T13:11:28;10.83;;;8.10;;
7493;SDS011;3788;49.902;8.590;2022-12-10T13:17:08;9.87;;;7.80;;
7493;SDS011;3788;49.902;8.590;2022-12-10T13:19:52;8.47;;;6.77;;
7493;SDS011;3788;49.902;8.590;2022-12-10T13:25:22;10.47;;;8.37;;
7493;SDS011;3788;49.902;8.590;2022-12-10T13:28:16;11.27;;;8.13;;
7493;SDS011;3788;49.902;8.590;2022-12-10T13:33:45;8.77;;;7.37;;
7493;SDS011;3788;49.902;8.590;2022-12-10T13:36:15;10.20;;;7.97;;
7493;SDS011;3788;49.902;8.590;2022-12-10T13:38:54;10.63;;;8.20;;
7493;SDS011;3788;49.902;8.590;2022-12-10T13:41:25;10.30;;;7.83;;
7493;SDS011;3788;49.902;8.590;2022-12-10T13:44:24;10.10;;;7.20;;
7493;SDS011;3788;49.902;8.590;2022-12-10T13:46:59;9.13;;;7.53;;
7493;SDS011;3788;49.902;8.590;2022-12-10T13:49:48;8.53;;;6.60;;
7493;SDS011;3788;49.902;8.590;2022-12-10T13:52:19;8.47;;;6.80;;
7493;SDS011;3788;49.902;8.590;2022-12-10T13:57:53;9.47;;;7.07;;
7493;SDS011;3788;49.902;8.590;2022-12-10T14:00:31;13.00;;;8.13;;
7493;SDS011;3788;49.902;8.590;2022-12-10T14:03:12;12.73;;;9.00;;
7493;SDS011;3788;49.902;8.590;2022-12-10T14:06:05;11.73;;;8.60;;
7493;SDS011;3788;49.902;8.590;2022-12-10T14:08:38;10.80;;;7.77;;
7493;SDS011;3788;49.902;8.590;2022-12-10T14:11:11;12.20;;;8.33;;
7493;SDS011;3788;49.902;8.590;2022-12-10T14:13:46;12.73;;;8.57;;
7493;SDS011;3788;49.902;8.590;2022-12-10T14:16:18;12.07;;;8.30;;
7493;SDS011;3788;49.902;8.590;2022-12-10T14:18:50;12.60;;;9.87;;
7493;SDS011;3788;49.902;8.590;2022-12-10T14:21:19;10.97;;;8.83;;
7493;SDS011;3788;49.902;8.590;2022-12-10T14:23:49;12.60;;;8.40;;
7493;SDS011;3788;49.902;8.590;2022-12-10T14:26:17;11.47;;;8.53;;
7493;SDS011;3788;49.902;8.590;2022-12-10T14:28:47;11.93;;;8.30;;
7493;SDS011;3788;49.902;8.590;2022-12-10T14:31:16;9.93;;;7.67;;
7493;SDS011;3788;49.902;8.590;2022-12-10T14:33:46;11.77;;;7.77;;
7493;SDS011;3788;49.902;8.590;2022-12-10T14:36:26;12.83;;;8.50;;
7493;SDS011;3788;49.902;8.590;2022-12-10T14:38:55;10.70;;;7.57;;
7493;SDS011;3788;49.902;8.590;2022-12-10T14:41:23;9.67;;;7.40;;
7493;SDS011;3788;49.902;8.590;2022-12-10T14:43:53;10.20;;;7.60;;
7493;SDS011;3788;49.902;8.590;2022-12-10T14:46:23;10.13;;;8.27;;
7493;SDS011;3788;49.902;8.590;2022-12-10T14:48:51;9.03;;;7.33;;
7493;SDS011;3788;49.902;8.590;2022-12-10T14:51:21;10.40;;;7.53;;
7493;SDS011;3788;49.902;8.590;2022-12-10T14:53:50;9.37;;;6.97;;
7493;SDS011;3788;49.902;8.590;2022-12-10T14:56:20;9.83;;;7.13;;
7493;SDS011;3788;49.902;8.590;2022-12-10T14:58:54;11.77;;;7.93;;
7493;SDS011;3788;49.902;8.590;2022-12-10T15:01:28;9.63;;;7.53;;
7493;SDS011;3788;49.902;8.590;2022-12-10T15:03:56;9.57;;;7.37;;
7493;SDS011;3788;49.902;8.590;2022-12-10T15:06:25;10.00;;;7.87;;
7493;SDS011;3788;49.902;8.590;2022-12-10T15:08:53;10.53;;;7.80;;
7493;SDS011;3788;49.902;8.590;2022-12-10T15:11:22;10.00;;;7.73;;
7493;SDS011;3788;49.902;8.590;2022-12-10T15:13:52;11.40;;;8.77;;
7493;SDS011;3788;49.902;8.590;2022-12-10T15:16:27;10.00;;;8.10;;
7493;SDS011;3788;49.902;8.590;2022-12-10T15:19:06;10.43;;;8.40;;
7493;SDS011;3788;49.902;8.590;2022-12-10T15:21:34;9.77;;;7.80;;
7493;SDS011;3788;49.902;8.590;2022-12-10T15:24:09;12.10;;;8.60;;
7493;SDS011;3788;49.902;8.590;2022-12-10T15:26:42;11.13;;;7.93;;
7493;SDS011;3788;49.902;8.590;2022-12-10T15:32:00;13.43;;;9.00;;
7493;SDS011;3788;49.902;8.590;2022-12-10T15:34:34;11.70;;;8.23;;
7493;SDS011;3788;49.902;8.590;2022-12-10T15:37:05;11.30;;;8.43;;
7493;SDS011;3788;49.902;8.590;2022-12-10T15:39:43;11.10;;;8.57;;